Time;durP1;ratioP1;P1;durP2;ratioP2;P2;SDS_P1;SDS_P2;PMS_P1;PMS_P2;Temp;Humidity;BMP_temperature;BMP_pressure;BME280_temperature;BME280_humidity;BME280_pressure;Samples;Min_cycle;Max_cycle;Signal;HPM_P1;HPM_P2
2021/09/09 00:02:03;;;;;;;8.15;5.50;;;18.20;99.90;;;;;;5090194;28;20424;-84
2021/09/09 00:04:32;;;;;;;9.27;5.80;;;18.10;99.90;;;;;;5089176;28;20044;-84
2021/09/09 00:06:59;;;;;;;9.20;6.05;;;18.20;99.90;;;;;;5094886;28;20486;-83
2021/09/09 00:09:26;;;;;;;7.60;5.50;;;18.10;99.90;;;;;;5090169;28;20050;-83
2021/09/09 00:11:53;;;;;;;9.25;5.97;;;18.10;99.90;;;;;;5095015;28;20048;-85
2021/09/09 00:14:20;;;;;;;9.05;5.75;;;18.20;99.90;;;;;;5090165;28;20040;-85
2021/09/09 00:16:47;;;;;;;10.35;5.78;;;18.10;99.90;;;;;;5090247;28;20048;-84
2021/09/09 00:19:14;;;;;;;9.20;5.70;;;18.30;99.90;;;;;;5089824;28;20048;-84
2021/09/09 00:21:43;;;;;;;10.32;6.20;;;18.10;99.90;;;;;;5089691;28;20140;-85
2021/09/09 00:24:10;;;;;;;8.55;5.78;;;18.20;99.90;;;;;;5092392;28;20127;-85
2021/09/09 00:26:37;;;;;;;9.15;6.22;;;18.10;99.90;;;;;;5090414;28;20123;-85
2021/09/09 00:29:04;;;;;;;8.88;6.05;;;18.20;99.90;;;;;;5090317;28;20050;-84
2021/09/09 00:31:31;;;;;;;9.90;6.80;;;18.00;99.90;;;;;;5090164;28;20557;-84
2021/09/09 00:33:59;;;;;;;12.48;8.45;;;18.10;99.90;;;;;;5089939;28;20123;-84
2021/09/09 00:36:26;;;;;;;10.38;7.00;;;18.00;99.90;;;;;;5089456;28;20062;-84
2021/09/09 00:38:54;;;;;;;10.95;6.97;;;18.00;99.90;;;;;;5089457;28;20055;-84
2021/09/09 00:41:22;;;;;;;11.90;6.50;;;18.00;99.90;;;;;;5089704;28;20050;-84
2021/09/09 00:43:52;;;;;;;8.57;5.95;;;;;;;;;;5089645;28;20499;-84
2021/09/09 00:46:22;;;;;;;9.02;6.80;;;17.90;99.90;;;;;;5088391;28;20477;-84
2021/09/09 00:48:50;;;;;;;9.25;6.05;;;17.80;99.90;;;;;;5089189;28;20047;-84
2021/09/09 00:51:17;;;;;;;9.95;6.50;;;17.70;99.90;;;;;;5089092;28;20054;-84
2021/09/09 00:53:45;;;;;;;9.00;6.65;;;17.70;99.90;;;;;;5089428;28;20048;-84
2021/09/09 00:56:14;;;;;;;9.13;5.80;;;17.70;99.90;;;;;;5089376;28;20127;-84
2021/09/09 00:58:44;;;;;;;8.40;6.03;;;17.60;99.90;;;;;;5096808;28;20058;-85
2021/09/09 01:01:12;;;;;;;9.57;6.78;;;17.70;99.90;;;;;;5096597;28;20478;-85
2021/09/09 01:03:39;;;;;;;8.70;6.03;;;17.70;99.90;;;;;;5089409;28;20040;-85
2021/09/09 01:06:07;;;;;;;9.85;6.03;;;17.70;99.90;;;;;;5089734;28;20050;-85
2021/09/09 01:08:34;;;;;;;9.02;6.07;;;17.60;99.90;;;;;;5089486;28;20062;-85
2021/09/09 01:11:01;;;;;;;9.13;6.00;;;17.60;99.90;;;;;;5089249;28;20544;-84
2021/09/09 01:13:29;;;;;;;9.10;6.43;;;17.60;99.90;;;;;;5088636;28;20047;-85
2021/09/09 01:15:56;;;;;;;10.77;6.72;;;17.50;99.90;;;;;;5089356;28;20044;-84
2021/09/09 01:18:23;;;;;;;11.02;6.57;;;17.50;99.90;;;;;;5088867;28;20052;-85
2021/09/09 01:20:51;;;;;;;7.63;5.70;;;17.50;99.90;;;;;;5088959;28;20054;-85
2021/09/09 01:23:20;;;;;;;8.05;5.90;;;17.50;99.90;;;;;;5089052;28;20048;-83
2021/09/09 01:25:48;;;;;;;8.60;6.15;;;17.50;99.90;;;;;;5088260;28;20405;-83
2021/09/09 01:28:16;;;;;;;9.50;6.60;;;17.50;99.90;;;;;;5088605;28;20044;-84
2021/09/09 01:30:43;;;;;;;8.35;6.10;;;17.50;99.90;;;;;;5088780;28;20044;-84
2021/09/09 01:33:10;;;;;;;9.43;6.82;;;17.60;99.90;;;;;;5088844;28;20417;-85
2021/09/09 01:35:37;;;;;;;9.13;6.47;;;17.60;99.90;;;;;;5089184;28;20126;-84
2021/09/09 01:38:04;;;;;;;11.05;6.50;;;17.60;99.90;;;;;;5088966;28;20043;-83
2021/09/09 01:40:32;;;;;;;10.02;6.55;;;17.60;99.90;;;;;;5088502;28;20040;-84
2021/09/09 01:43:01;;;;;;;10.18;6.57;;;17.60;99.90;;;;;;5088500;28;20044;-83
2021/09/09 01:45:28;;;;;;;9.95;6.63;;;17.50;99.90;;;;;;5088164;28;20485;-83
2021/09/09 01:47:56;;;;;;;10.30;6.95;;;17.50;99.90;;;;;;5088766;28;20119;-84
2021/09/09 01:50:24;;;;;;;9.43;6.45;;;17.50;99.90;;;;;;5088664;28;20055;-84
2021/09/09 01:52:51;;;;;;;8.55;6.20;;;17.50;99.90;;;;;;5088798;28;20040;-84
2021/09/09 01:55:18;;;;;;;9.98;6.50;;;17.40;99.90;;;;;;5088545;28;20048;-84
2021/09/09 01:57:45;;;;;;;8.57;5.85;;;17.40;99.90;;;;;;5088628;28;20127;-83
2021/09/09 02:00:15;;;;;;;9.05;6.30;;;17.40;99.90;;;;;;5087514;28;20055;-84
2021/09/09 02:02:43;;;;;;;9.38;6.25;;;17.40;99.90;;;;;;5087256;28;20050;-85
2021/09/09 02:05:12;;;;;;;10.25;6.53;;;17.40;99.90;;;;;;5087177;28;20139;-84
2021/09/09 02:07:39;;;;;;;8.68;5.72;;;17.40;99.90;;;;;;5089660;28;20040;-84
2021/09/09 02:10:09;;;;;;;9.07;6.25;;;17.40;99.90;;;;;;5091418;28;20115;-83
2021/09/09 02:12:36;;;;;;;9.07;5.85;;;17.40;99.90;;;;;;5092325;28;20036;-85
2021/09/09 02:15:05;;;;;;;9.88;6.45;;;17.50;99.90;;;;;;5092367;28;20043;-84
2021/09/09 02:17:33;;;;;;;8.35;6.30;;;17.40;99.90;;;;;;5084987;28;20036;-84
2021/09/09 02:20:00;;;;;;;9.70;6.25;;;17.40;99.90;;;;;;5092335;28;20048;-85
2021/09/09 02:22:27;;;;;;;8.68;6.05;;;17.40;99.90;;;;;;5091670;28;20048;-84
2021/09/09 02:24:54;;;;;;;8.25;5.90;;;17.40;99.90;;;;;;5092155;28;20062;-85
2021/09/09 02:27:21;;;;;;;8.05;6.00;;;17.30;99.90;;;;;;5092002;28;20489;-84
2021/09/09 02:29:48;;;;;;;10.68;6.88;;;17.30;99.90;;;;;;5092063;28;20054;-86
2021/09/09 02:32:15;;;;;;;9.05;5.85;;;17.20;99.90;;;;;;5092168;28;20046;-84
2021/09/09 02:34:44;;;;;;;8.27;6.22;;;17.20;99.90;;;;;;5092298;28;20036;-85
2021/09/09 02:37:11;;;;;;;8.75;6.25;;;17.10;99.90;;;;;;5093993;28;20457;-85
2021/09/09 02:39:42;;;;;;;8.70;6.05;;;17.00;99.90;;;;;;5095808;28;20050;-84
2021/09/09 02:42:10;;;;;;;8.68;6.15;;;16.90;99.90;;;;;;5096047;28;20393;-84
2021/09/09 02:44:37;;;;;;;8.93;6.25;;;16.80;99.90;;;;;;5095900;28;20482;-85
2021/09/09 02:47:05;;;;;;;8.25;5.72;;;16.70;99.90;;;;;;5092318;28;20048;-84
2021/09/09 02:49:32;;;;;;;8.07;5.93;;;16.70;99.90;;;;;;5095678;28;20040;-85
2021/09/09 02:52:00;;;;;;;9.73;6.47;;;16.70;99.90;;;;;;5095575;28;20044;-84
2021/09/09 02:54:27;;;;;;;9.32;5.78;;;16.70;99.90;;;;;;5095481;28;20047;-85
2021/09/09 02:56:55;;;;;;;9.52;5.97;;;16.70;99.90;;;;;;5095668;28;20414;-85
2021/09/09 02:59:22;;;;;;;9.05;6.22;;;16.70;99.90;;;;;;5095563;28;20417;-89
2021/09/09 03:01:49;;;;;;;8.73;6.10;;;16.70;99.90;;;;;;5095122;28;20051;-85
2021/09/09 03:04:16;;;;;;;9.15;6.00;;;16.70;99.90;;;;;;5092304;28;20058;-84
2021/09/09 03:06:43;;;;;;;8.25;6.07;;;16.70;99.90;;;;;;5092645;28;20123;-85
2021/09/09 03:09:11;;;;;;;9.50;6.55;;;16.70;99.90;;;;;;5091038;28;20415;-85
2021/09/09 03:11:38;;;;;;;9.05;5.93;;;16.60;99.90;;;;;;5091914;28;20052;-86
2021/09/09 03:14:05;;;;;;;8.30;5.97;;;16.60;99.90;;;;;;5091686;28;20066;-85
2021/09/09 03:16:32;;;;;;;8.05;5.80;;;16.70;99.90;;;;;;5092043;28;20482;-86
2021/09/09 03:18:59;;;;;;;9.65;6.47;;;16.60;99.90;;;;;;5091796;28;20046;-85
2021/09/09 03:21:26;;;;;;;8.77;5.85;;;16.70;99.90;;;;;;5090982;28;20048;-85
2021/09/09 03:23:54;;;;;;;9.60;6.35;;;16.70;99.90;;;;;;5092055;28;20135;-85
2021/09/09 03:26:22;;;;;;;9.15;6.65;;;16.70;99.90;;;;;;5091380;28;20059;-85
2021/09/09 03:28:49;;;;;;;9.90;6.43;;;16.60;99.90;;;;;;5091627;28;20044;-84
2021/09/09 03:31:16;;;;;;;9.38;6.85;;;16.70;99.90;;;;;;5091435;28;20036;-84
2021/09/09 03:33:43;;;;;;;8.02;5.90;;;16.60;99.90;;;;;;5091605;28;20490;-85
2021/09/09 03:36:10;;;;;;;10.93;6.32;;;16.60;99.90;;;;;;5091103;28;20040;-85
2021/09/09 03:38:38;;;;;;;9.35;6.53;;;16.50;99.90;;;;;;5091622;28;20040;-85
2021/09/09 03:41:05;;;;;;;9.38;6.70;;;16.60;99.90;;;;;;5091197;28;20051;-87
2021/09/09 03:43:33;;;;;;;9.20;6.47;;;16.50;99.90;;;;;;5091208;28;20424;-79
2021/09/09 03:46:00;;;;;;;9.15;5.97;;;16.50;99.90;;;;;;5090917;28;20549;-80
2021/09/09 03:48:27;;;;;;;8.75;6.32;;;16.50;99.90;;;;;;5090113;28;20040;-80
2021/09/09 03:50:54;;;;;;;9.48;6.32;;;16.50;99.90;;;;;;5088988;28;20044;-80
2021/09/09 03:53:21;;;;;;;9.18;6.07;;;16.50;99.90;;;;;;5090685;28;20409;-79
2021/09/09 03:55:49;;;;;;;9.57;6.75;;;16.50;99.90;;;;;;5090955;28;20131;-79
2021/09/09 03:58:16;;;;;;;8.73;6.53;;;16.50;99.90;;;;;;5090620;28;20127;-79
2021/09/09 04:00:44;;;;;;;11.00;5.93;;;16.40;99.90;;;;;;5090621;28;20048;-79
2021/09/09 04:03:11;;;;;;;8.82;5.90;;;16.40;99.90;;;;;;5094053;28;20130;-80
2021/09/09 04:05:38;;;;;;;8.10;5.97;;;16.40;99.90;;;;;;5094404;28;20040;-79
2021/09/09 04:08:07;;;;;;;9.63;6.20;;;16.40;99.90;;;;;;5093997;28;20468;-81
2021/09/09 04:10:35;;;;;;;9.35;6.68;;;16.40;99.90;;;;;;5094361;28;20040;-81
2021/09/09 04:13:02;;;;;;;10.25;6.35;;;16.40;99.90;;;;;;5093885;28;20048;-81
2021/09/09 04:15:29;;;;;;;9.85;6.60;;;16.30;99.90;;;;;;5094002;28;20055;-85
2021/09/09 04:17:57;;;;;;;8.93;6.35;;;16.30;99.90;;;;;;5093971;28;20462;-82
2021/09/09 04:20:24;;;;;;;9.43;6.40;;;16.30;99.90;;;;;;5093615;28;20054;-80
2021/09/09 04:22:51;;;;;;;9.07;6.38;;;16.30;99.90;;;;;;5094005;28;20046;-86
2021/09/09 04:25:18;;;;;;;9.93;7.22;;;16.20;99.90;;;;;;5093531;28;20036;-86
2021/09/09 04:27:45;;;;;;;8.43;6.22;;;16.30;99.90;;;;;;5094207;28;20062;-86
2021/09/09 04:30:13;;;;;;;10.00;7.47;;;16.30;99.90;;;;;;5093932;28;20404;-87
2021/09/09 04:32:40;;;;;;;10.02;7.03;;;16.30;99.90;;;;;;5094628;28;20481;-87
2021/09/09 04:35:09;;;;;;;10.05;7.13;;;16.40;99.90;;;;;;5094703;28;20127;-86
2021/09/09 04:37:37;;;;;;;9.32;6.63;;;16.40;99.90;;;;;;5094677;28;20051;-87
2021/09/09 04:40:05;;;;;;;8.48;6.32;;;16.40;99.90;;;;;;5094495;28;20058;-87
2021/09/09 04:42:32;;;;;;;10.07;6.38;;;16.40;99.90;;;;;;5094118;28;20138;-87
2021/09/09 04:44:59;;;;;;;9.30;5.70;;;16.40;99.90;;;;;;5094226;28;20046;-87
2021/09/09 04:47:26;;;;;;;10.45;6.80;;;16.40;99.90;;;;;;5080482;28;20393;-87
2021/09/09 04:49:53;;;;;;;9.27;6.70;;;16.40;99.90;;;;;;5073730;28;20051;-87
2021/09/09 04:52:22;;;;;;;8.82;6.80;;;16.40;99.90;;;;;;5073622;28;20048;-87
2021/09/09 04:54:49;;;;;;;11.48;7.18;;;16.30;99.90;;;;;;5073566;28;20064;-87
2021/09/09 04:57:16;;;;;;;10.32;7.35;;;16.30;99.90;;;;;;5074986;28;20144;-87
2021/09/09 04:59:43;;;;;;;11.10;6.68;;;16.20;99.90;;;;;;5113770;28;20426;-87
2021/09/09 05:02:10;;;;;;;8.43;6.10;;;16.20;99.90;;;;;;5114114;28;20050;-87
2021/09/09 05:04:38;;;;;;;9.68;6.20;;;16.10;99.90;;;;;;5114692;28;20040;-88
2021/09/09 05:07:05;;;;;;;8.93;6.03;;;16.10;99.90;;;;;;5114293;28;20051;-87
2021/09/09 05:09:34;;;;;;;8.73;6.40;;;16.10;99.90;;;;;;5114379;28;20070;-87
2021/09/09 05:12:01;;;;;;;8.15;6.30;;;16.10;99.90;;;;;;5114109;28;20044;-88
2021/09/09 05:14:28;;;;;;;10.68;6.78;;;16.20;99.90;;;;;;5114274;28;20409;-88
2021/09/09 05:16:55;;;;;;;8.88;6.65;;;16.20;99.90;;;;;;5114303;28;20074;-88
2021/09/09 05:19:22;;;;;;;9.50;6.80;;;16.20;99.90;;;;;;5114211;28;20049;-88
2021/09/09 05:21:49;;;;;;;10.98;7.03;;;16.30;99.90;;;;;;5113940;28;20051;-87
2021/09/09 05:24:16;;;;;;;8.82;6.47;;;16.20;99.90;;;;;;5113921;28;20066;-88
2021/09/09 05:26:45;;;;;;;12.10;6.88;;;16.20;99.90;;;;;;5113771;28;20054;-87
2021/09/09 05:29:12;;;;;;;9.57;6.65;;;16.20;99.90;;;;;;5114035;28;20134;-88
2021/09/09 05:31:39;;;;;;;10.43;6.75;;;16.20;99.90;;;;;;5114423;28;20164;-87
2021/09/09 05:34:06;;;;;;;7.78;6.10;;;16.20;99.90;;;;;;5114166;28;20047;-87
2021/09/09 05:36:33;;;;;;;8.73;6.25;;;16.20;99.90;;;;;;5113803;28;20128;-87
2021/09/09 05:39:00;;;;;;;8.40;6.32;;;16.20;99.90;;;;;;5113667;28;20148;-88
2021/09/09 05:41:27;;;;;;;9.13;6.30;;;16.20;99.90;;;;;;5113752;28;20063;-88
2021/09/09 05:43:55;;;;;;;9.75;6.18;;;16.30;99.90;;;;;;5113878;28;20126;-88
2021/09/09 05:46:22;;;;;;;9.65;6.70;;;16.30;99.90;;;;;;5114110;28;20039;-87
2021/09/09 05:48:49;;;;;;;9.68;6.45;;;16.30;99.90;;;;;;5113858;28;20058;-88
2021/09/09 05:51:16;;;;;;;8.27;6.40;;;16.30;99.90;;;;;;5113555;28;20131;-88
2021/09/09 05:53:43;;;;;;;10.00;6.45;;;16.40;99.90;;;;;;5113574;28;20039;-87
2021/09/09 05:56:10;;;;;;;9.00;6.35;;;16.40;99.90;;;;;;5114284;28;20040;-87
2021/09/09 05:58:38;;;;;;;9.35;6.80;;;16.40;99.90;;;;;;5114101;28;20039;-87
2021/09/09 06:01:07;;;;;;;9.32;6.88;;;16.50;99.90;;;;;;5113431;28;20100;-86
2021/09/09 06:03:35;;;;;;;11.93;7.45;;;16.50;99.90;;;;;;5113582;28;20118;-88
2021/09/09 06:06:04;;;;;;;11.07;8.30;;;16.60;99.90;;;;;;5113351;28;20101;-87
2021/09/09 06:08:32;;;;;;;10.52;7.60;;;16.60;99.90;;;;;;5113902;28;20464;-87
2021/09/09 06:10:59;;;;;;;12.05;8.50;;;16.60;99.90;;;;;;5113906;28;20051;-87
2021/09/09 06:13:26;;;;;;;12.45;9.05;;;16.60;99.90;;;;;;5117993;28;20507;-87
2021/09/09 06:15:54;;;;;;;12.07;8.95;;;16.60;99.90;;;;;;5117886;28;20048;-87
2021/09/09 06:18:22;;;;;;;13.70;8.70;;;16.60;99.90;;;;;;5117713;28;20040;-88
2021/09/09 06:20:49;;;;;;;13.50;9.00;;;16.60;99.90;;;;;;5117537;28;20066;-87
2021/09/09 06:23:16;;;;;;;11.80;8.68;;;16.60;99.90;;;;;;5117789;28;20047;-88
2021/09/09 06:25:43;;;;;;;12.50;8.75;;;16.60;99.90;;;;;;5117281;28;20138;-87
2021/09/09 06:28:10;;;;;;;12.50;8.60;;;16.60;99.90;;;;;;5117092;28;20046;-87
2021/09/09 06:30:38;;;;;;;10.93;7.60;;;16.60;99.90;;;;;;5117194;28;20047;-88
2021/09/09 06:33:05;;;;;;;11.68;8.50;;;16.60;99.90;;;;;;5116798;28;20445;-88
2021/09/09 06:35:34;;;;;;;11.32;8.48;;;16.70;99.90;;;;;;5116935;28;20552;-87
2021/09/09 06:38:01;;;;;;;10.13;7.25;;;16.80;99.90;;;;;;5116994;28;20141;-88
2021/09/09 06:40:29;;;;;;;10.80;7.88;;;16.90;99.90;;;;;;5116705;28;20135;-87
2021/09/09 06:42:56;;;;;;;10.50;7.70;;;16.90;99.90;;;;;;5116953;28;20097;-88
2021/09/09 06:45:23;;;;;;;10.68;7.75;;;17.10;99.90;;;;;;5116802;28;20082;-88
2021/09/09 06:47:50;;;;;;;9.85;7.05;;;17.10;99.90;;;;;;5084875;28;20091;-87
2021/09/09 06:50:17;;;;;;;8.73;6.43;;;17.20;99.90;;;;;;5074500;28;20059;-88
2021/09/09 06:52:45;;;;;;;9.48;6.63;;;17.30;99.90;;;;;;5075639;28;20046;-87
2021/09/09 06:55:13;;;;;;;9.85;6.43;;;17.40;99.90;;;;;;5075658;28;20405;-87
2021/09/09 06:57:40;;;;;;;9.57;7.03;;;17.40;99.90;;;;;;5075641;28;20053;-87
2021/09/09 07:00:08;;;;;;;9.30;6.80;;;17.50;99.90;;;;;;5075513;28;20508;-87
2021/09/09 07:02:35;;;;;;;10.63;6.32;;;17.60;99.90;;;;;;5075502;28;20504;-87
2021/09/09 07:05:02;;;;;;;8.80;6.53;;;17.60;99.90;;;;;;5075758;28;20044;-87
2021/09/09 07:07:29;;;;;;;9.02;6.10;;;17.70;99.90;;;;;;5075564;28;20135;-88
2021/09/09 07:09:58;;;;;;;8.73;6.45;;;17.70;99.90;;;;;;5075487;28;20068;-87
2021/09/09 07:12:25;;;;;;;10.20;6.72;;;17.80;99.90;;;;;;5075560;28;20045;-87
2021/09/09 07:14:52;;;;;;;9.57;6.70;;;17.90;99.90;;;;;;5075186;28;20144;-87
2021/09/09 07:17:19;;;;;;;9.88;6.78;;;17.90;99.90;;;;;;5075634;28;20048;-88
2021/09/09 07:19:46;;;;;;;9.20;6.10;;;18.00;99.90;;;;;;5075438;28;20040;-88
2021/09/09 07:22:13;;;;;;;9.35;6.65;;;18.00;99.90;;;;;;5075135;28;20074;-88
2021/09/09 07:24:40;;;;;;;11.13;6.53;;;18.10;99.90;;;;;;5074430;28;20055;-88
2021/09/09 07:27:08;;;;;;;8.98;6.22;;;18.10;99.90;;;;;;5075186;28;20044;-88
2021/09/09 07:29:36;;;;;;;9.43;6.25;;;18.20;99.90;;;;;;5075309;28;20051;-88
2021/09/09 07:32:03;;;;;;;8.88;6.00;;;18.30;99.90;;;;;;5075334;28;20051;-89
2021/09/09 07:34:30;;;;;;;8.65;6.18;;;18.30;99.90;;;;;;5075258;28;20490;-88
2021/09/09 07:36:57;;;;;;;8.35;6.25;;;18.40;99.90;;;;;;5085847;28;20043;-89
2021/09/09 07:39:25;;;;;;;8.82;5.85;;;18.50;99.90;;;;;;5095082;28;20416;-88
2021/09/09 07:41:52;;;;;;;9.48;6.45;;;18.50;99.90;;;;;;5095280;28;20056;-87
2021/09/09 07:44:20;;;;;;;11.57;7.03;;;18.60;99.90;;;;;;5095151;28;20127;-87
2021/09/09 07:46:47;;;;;;;8.95;6.50;;;18.70;99.90;;;;;;5095501;28;20123;-87
2021/09/09 07:49:15;;;;;;;8.55;6.10;;;18.70;99.90;;;;;;5095313;28;20048;-88
2021/09/09 07:51:43;;;;;;;10.73;7.05;;;18.80;99.90;;;;;;5093046;28;20075;-88
2021/09/09 07:54:10;;;;;;;8.85;6.45;;;18.90;99.90;;;;;;5095059;28;20050;-87
2021/09/09 07:56:37;;;;;;;8.63;6.18;;;19.00;99.90;;;;;;5095207;28;20048;-88
2021/09/09 07:59:04;;;;;;;9.43;6.75;;;19.10;99.90;;;;;;5094832;28;20460;-88
2021/09/09 08:01:33;;;;;;;8.55;6.35;;;19.20;99.90;;;;;;5094662;28;20048;-89
2021/09/09 08:04:00;;;;;;;8.10;5.55;;;19.20;99.90;;;;;;5095325;28;20134;-88
2021/09/09 08:06:27;;;;;;;9.27;5.70;;;19.40;99.90;;;;;;5094559;28;20127;-89
2021/09/09 08:08:54;;;;;;;11.23;5.40;;;19.50;99.90;;;;;;5094224;28;20051;-89
2021/09/09 08:11:21;;;;;;;8.73;5.70;;;19.60;99.90;;;;;;5095454;28;20051;-88
2021/09/09 08:13:51;;;;;;;9.90;6.85;;;19.70;99.90;;;;;;5094573;28;20048;-87
2021/09/09 08:16:18;;;;;;;8.90;6.05;;;19.90;99.90;;;;;;5094404;28;20059;-90
2021/09/09 08:18:47;;;;;;;8.43;6.10;;;19.90;99.80;;;;;;5094285;28;20040;-87
2021/09/09 08:21:15;;;;;;;8.95;5.68;;;20.10;99.80;;;;;;5094302;28;20081;-88
2021/09/09 08:23:43;;;;;;;8.60;6.22;;;20.30;99.70;;;;;;5094016;28;20044;-91
2021/09/09 08:26:11;;;;;;;8.55;5.60;;;20.40;99.50;;;;;;5094886;28;20044;-91
2021/09/09 08:28:39;;;;;;;9.40;5.88;;;20.50;99.20;;;;;;5094971;28;20474;-92
2021/09/09 08:31:06;;;;;;;9.50;5.95;;;20.60;99.10;;;;;;5094372;28;20409;-92
2021/09/09 08:33:34;;;;;;;8.65;6.40;;;20.80;98.60;;;;;;5096476;28;20054;-92
2021/09/09 08:36:06;;;;;;;8.10;5.60;;;20.90;97.90;;;;;;5096394;28;20142;-94
2021/09/09 08:38:33;;;;;;;9.30;6.40;;;21.00;97.70;;;;;;5094965;28;20131;-91
2021/09/09 08:41:02;;;;;;;9.63;6.55;;;21.10;97.30;;;;;;5097128;28;20496;-90
2021/09/09 08:43:30;;;;;;;8.88;6.40;;;21.20;96.90;;;;;;5095135;28;20123;-90
2021/09/09 08:46:01;;;;;;;9.93;6.28;;;21.20;96.80;;;;;;5094762;28;20075;-92
2021/09/09 08:48:28;;;;;;;8.25;5.85;;;21.30;97.00;;;;;;5094688;28;20044;-92
2021/09/09 08:50:56;;;;;;;8.00;6.03;;;21.40;96.80;;;;;;5095211;28;20083;-93
2021/09/09 08:53:25;;;;;;;8.57;6.32;;;21.50;96.40;;;;;;5095018;28;20138;-93
2021/09/09 08:55:52;;;;;;;9.55;5.72;;;21.60;96.20;;;;;;5094607;28;20146;-92
2021/09/09 08:58:20;;;;;;;9.63;6.43;;;21.60;96.30;;;;;;5094327;28;20048;-93
2021/09/09 09:01:08;;;;;;;9.35;6.10;;;21.70;95.70;;;;;;5094206;28;20054;-92
2021/09/09 09:03:50;;;;;;;8.05;5.55;;;21.70;95.60;;;;;;5094797;28;20095;-93
2021/09/09 09:06:38;;;;;;;8.27;5.93;;;21.80;95.50;;;;;;5094580;28;20058;-90
2021/09/09 09:09:10;;;;;;;8.50;5.95;;;21.90;95.30;;;;;;5088132;28;20048;-91
2021/09/09 09:11:41;;;;;;;9.23;5.70;;;22.00;94.80;;;;;;5094838;28;20051;-94
2021/09/09 09:14:10;;;;;;;7.30;5.60;;;22.00;94.80;;;;;;5094657;28;20106;-94
2021/09/09 09:16:44;;;;;;;9.45;6.22;;;22.10;94.70;;;;;;5094397;28;20048;-91
2021/09/09 09:19:12;;;;;;;10.98;6.55;;;22.20;94.60;;;;;;5094048;28;20052;-91
2021/09/09 09:21:44;;;;;;;8.07;5.50;;;22.30;94.10;;;;;;5093617;28;20056;-92
2021/09/09 09:24:16;;;;;;;6.75;4.68;;;22.40;94.10;;;;;;5094315;28;20055;-91
2021/09/09 09:27:05;;;;;;;7.65;5.13;;;22.40;93.10;;;;;;5093995;28;20047;-91
2021/09/09 09:29:32;;;;;;;8.25;5.18;;;22.50;92.80;;;;;;5094046;28;20048;-93
2021/09/09 09:32:13;;;;;;;7.88;4.78;;;22.60;92.30;;;;;;5094164;28;20066;-92
2021/09/09 09:34:41;;;;;;;9.15;5.18;;;22.60;92.30;;;;;;5093806;28;20588;-91
2021/09/09 09:37:09;;;;;;;6.72;4.80;;;22.70;91.70;;;;;;5093972;28;20044;-90
2021/09/09 09:39:38;;;;;;;6.97;4.28;;;22.80;91.40;;;;;;5093935;28;20135;-90
2021/09/09 09:42:07;;;;;;;8.13;4.75;;;22.80;90.70;;;;;;5093802;28;20485;-90
2021/09/09 09:44:35;;;;;;;7.97;4.70;;;22.80;90.40;;;;;;5093819;28;20131;-91
2021/09/09 09:47:12;;;;;;;7.13;4.65;;;22.90;90.40;;;;;;5093289;28;20044;-90
2021/09/09 09:49:42;;;;;;;7.72;4.72;;;23.00;90.30;;;;;;5093612;28;20066;-90
2021/09/09 09:52:17;;;;;;;6.13;4.22;;;23.10;90.20;;;;;;5093836;28;20467;-93
2021/09/09 09:54:52;;;;;;;6.28;4.32;;;23.10;90.10;;;;;;5093999;28;20058;-91
2021/09/09 09:57:20;;;;;;;7.55;4.30;;;23.20;89.40;;;;;;5094144;28;20071;-94
2021/09/09 09:59:47;;;;;;;7.30;4.47;;;23.20;89.40;;;;;;5094075;28;20409;-92
2021/09/09 10:02:15;;;;;;;9.38;4.40;;;23.20;89.20;;;;;;5093734;28;20090;-92
2021/09/09 10:04:43;;;;;;;6.97;5.28;;;23.20;89.10;;;;;;5093511;28;20044;-92
2021/09/09 10:07:12;;;;;;;6.80;4.63;;;23.20;88.90;;;;;;5093254;28;20436;-91
2021/09/09 10:09:39;;;;;;;8.18;4.38;;;23.30;88.80;;;;;;5096327;28;20408;-90
2021/09/09 10:12:10;;;;;;;8.68;4.63;;;23.40;88.70;;;;;;5092449;28;20051;-88
2021/09/09 10:14:46;;;;;;;7.03;4.70;;;23.40;88.10;;;;;;5090684;28;20400;-90
2021/09/09 10:17:13;;;;;;;7.03;4.50;;;23.40;87.90;;;;;;5089639;28;20130;-87
2021/09/09 10:19:40;;;;;;;7.38;4.57;;;23.50;87.50;;;;;;5089618;28;20568;-79
2021/09/09 10:22:12;;;;;;;6.05;4.13;;;23.50;87.70;;;;;;5088155;28;20060;-80
2021/09/09 10:24:41;;;;;;;6.65;4.35;;;23.50;88.00;;;;;;5089339;28;20125;-80
2021/09/09 10:27:27;;;;;;;7.43;4.25;;;23.60;88.20;;;;;;5089710;28;20457;-80
2021/09/09 10:30:00;;;;;;;5.85;4.10;;;23.70;87.40;;;;;;5085918;28;20441;-79
2021/09/09 10:32:56;;;;;;;6.22;4.45;;;23.70;87.10;;;;;;5088383;28;20075;-79
2021/09/09 10:35:39;;;;;;;7.10;4.65;;;23.70;86.90;;;;;;5088796;28;20075;-79
2021/09/09 10:38:34;;;;;;;8.77;4.88;;;23.80;86.80;;;;;;5087403;28;20128;-79
2021/09/09 10:41:05;;;;;;;6.40;4.45;;;23.90;86.40;;;;;;5088165;28;20078;-79
2021/09/09 10:43:48;;;;;;;6.55;4.57;;;23.90;85.40;;;;;;5088137;28;20145;-80
2021/09/09 10:46:16;;;;;;;7.65;4.38;;;24.00;86.40;;;;;;5088433;28;20048;-79
2021/09/09 10:48:46;;;;;;;8.18;4.45;;;24.00;84.30;;;;;;5086914;28;20066;-79
2021/09/09 10:51:20;;;;;;;6.13;4.30;;;24.10;84.10;;;;;;5087032;28;20044;-80
2021/09/09 10:53:55;;;;;;;6.45;4.22;;;24.20;83.10;;;;;;5087888;28;20044;-80
2021/09/09 10:56:24;;;;;;;6.13;4.10;;;24.20;83.10;;;;;;5086994;28;20044;-80
2021/09/09 10:59:13;;;;;;;8.85;4.60;;;24.20;83.00;;;;;;5088696;28;20471;-80
2021/09/09 11:01:45;;;;;;;7.28;4.32;;;24.20;83.30;;;;;;5084739;28;20409;-80
2021/09/09 11:04:36;;;;;;;6.75;4.57;;;24.30;83.30;;;;;;5090564;28;20127;-80
2021/09/09 11:07:21;;;;;;;7.32;4.32;;;24.40;81.30;;;;;;5079115;28;20047;-80
2021/09/09 11:09:48;;;;;;;7.10;4.15;;;24.40;81.10;;;;;;5090190;28;20078;-81
2021/09/09 11:12:16;;;;;;;7.57;4.65;;;24.50;81.90;;;;;;5092043;28;20048;-75
2021/09/09 11:14:44;;;;;;;6.18;3.85;;;24.50;80.10;;;;;;5091478;28;20561;-75
2021/09/09 11:17:17;;;;;;;7.10;4.10;;;24.50;80.10;;;;;;5091161;28;20671;-75
2021/09/09 11:19:45;;;;;;;7.53;4.45;;;24.60;80.20;;;;;;5091127;28;20056;-82
2021/09/09 11:22:13;;;;;;;7.90;4.68;;;24.60;79.90;;;;;;5091788;28;20051;-91
2021/09/09 11:24:40;;;;;;;6.70;4.35;;;24.60;79.60;;;;;;5092167;28;20048;-92
2021/09/09 11:27:15;;;;;;;7.30;4.50;;;24.70;77.00;;;;;;5093700;28;20048;-93
2021/09/09 11:29:43;;;;;;;6.15;4.13;;;24.80;76.40;;;;;;5093101;28;20152;-90
2021/09/09 11:32:15;;;;;;;6.80;4.32;;;24.80;74.90;;;;;;5092567;28;20490;-87
2021/09/09 11:34:43;;;;;;;7.57;4.38;;;24.90;74.30;;;;;;5090118;28;20048;-84
2021/09/09 11:37:10;;;;;;;5.80;4.30;;;24.90;74.20;;;;;;5090997;28;20047;-86
2021/09/09 11:39:37;;;;;;;5.75;3.95;;;25.00;74.50;;;;;;5091188;28;20505;-87
2021/09/09 11:42:05;;;;;;;8.57;3.90;;;25.10;74.30;;;;;;5090946;28;20055;-88
2021/09/09 11:44:35;;;;;;;8.45;4.45;;;25.10;73.30;;;;;;5092561;28;20064;-87
2021/09/09 11:47:13;;;;;;;6.05;4.00;;;25.20;71.50;;;;;;5092424;28;20056;-87
2021/09/09 11:49:40;;;;;;;7.47;3.75;;;25.20;70.60;;;;;;5092109;28;20044;-89
2021/09/09 11:52:09;;;;;;;5.93;3.92;;;25.30;70.30;;;;;;5092331;28;20135;-88
2021/09/09 11:54:39;;;;;;;6.18;4.03;;;25.30;69.60;;;;;;5092651;28;20131;-88
2021/09/09 11:57:09;;;;;;;6.53;4.00;;;25.30;69.10;;;;;;5091261;28;20043;-86
2021/09/09 11:59:37;;;;;;;6.22;3.85;;;25.40;68.60;;;;;;5089889;28;20139;-84
2021/09/09 12:02:08;;;;;;;5.93;4.05;;;25.50;68.90;;;;;;5081052;28;20127;-85
2021/09/09 12:04:40;;;;;;;5.72;3.65;;;25.60;68.30;;;;;;5091124;28;20087;-84
2021/09/09 12:07:08;;;;;;;6.50;4.28;;;25.60;67.80;;;;;;5088217;28;20059;-87
2021/09/09 12:09:38;;;;;;;7.18;3.80;;;25.80;66.60;;;;;;5090631;28;20067;-85
2021/09/09 12:12:08;;;;;;;5.10;3.50;;;25.80;65.90;;;;;;5070943;28;20452;-85
2021/09/09 12:14:37;;;;;;;6.20;3.40;;;26.00;66.80;;;;;;5102485;28;20043;-86
2021/09/09 12:17:12;;;;;;;6.70;4.25;;;26.10;66.40;;;;;;5112469;28;20134;-84
2021/09/09 12:20:00;;;;;;;5.45;4.00;;;26.20;66.30;;;;;;5091623;28;20044;-84
2021/09/09 12:22:48;;;;;;;5.40;3.70;;;26.30;65.70;;;;;;5088852;28;20140;-83
2021/09/09 12:25:19;;;;;;;6.50;3.75;;;26.40;66.10;;;;;;5088764;28;20432;-86
2021/09/09 12:28:07;;;;;;;5.30;3.85;;;26.50;65.90;;;;;;5089390;28;20048;-85
2021/09/09 12:30:36;;;;;;;6.50;3.95;;;26.50;64.10;;;;;;5091060;28;20044;-85
2021/09/09 12:33:16;;;;;;;5.95;3.92;;;26.60;63.40;;;;;;5090609;28;20147;-84
2021/09/09 12:36:02;;;;;;;6.13;4.05;;;26.60;63.00;;;;;;5071393;28;20044;-88
2021/09/09 12:38:32;;;;;;;6.22;4.07;;;26.70;62.30;;;;;;5074075;28;20477;-87
2021/09/09 12:41:00;;;;;;;6.43;4.45;;;26.80;63.50;;;;;;5091203;28;20127;-87
2021/09/09 12:43:29;;;;;;;6.53;4.20;;;;;;;;;;5091434;28;20058;-85
2021/09/09 12:45:59;;;;;;;5.07;3.65;;;26.90;60.80;;;;;;5090443;28;20050;-85
2021/09/09 12:48:30;;;;;;;6.03;4.00;;;26.90;62.10;;;;;;5090536;28;20063;-86
2021/09/09 12:51:01;;;;;;;5.80;3.90;;;26.90;63.40;;;;;;5088767;28;20679;-85
2021/09/09 12:53:31;;;;;;;6.07;4.22;;;26.90;62.80;;;;;;5077314;28;20496;-84
2021/09/09 12:56:02;;;;;;;5.80;4.30;;;27.00;62.90;;;;;;5089991;28;20385;-84